Time;durP1;ratioP1;P1;durP2;ratioP2;P2;SDS_P1;SDS_P2;PMS_P1;PMS_P2;Temp;Humidity;BMP_temperature;BMP_pressure;BME280_temperature;BME280_humidity;BME280_pressure;Samples;Min_cycle;Max_cycle;Signal;HPM_P1;HPM_P2
2022/05/04 00:01:20;;;;;;;3.05;1.80;;;20.70;62.40;;;;;;4995219;28;20176;-69
2022/05/04 00:03:47;;;;;;;2.30;2.10;;;20.70;62.40;;;;;;5011181;28;20215;-69
2022/05/04 00:06:12;;;;;;;2.80;2.13;;;20.70;62.40;;;;;;4995387;28;20192;-68
2022/05/04 00:08:38;;;;;;;2.58;1.67;;;20.70;62.40;;;;;;5011384;28;20188;-69
2022/05/04 00:11:06;;;;;;;2.10;1.90;;;20.80;62.50;;;;;;5009990;28;20212;-69
2022/05/04 00:13:33;;;;;;;2.45;1.77;;;20.70;62.30;;;;;;4999017;28;20227;-69
2022/05/04 00:16:03;;;;;;;2.53;1.92;;;20.70;62.40;;;;;;5011328;28;20322;-69
2022/05/04 00:18:30;;;;;;;2.20;1.73;;;20.70;62.30;;;;;;5011619;28;20188;-68
2022/05/04 00:20:57;;;;;;;2.60;1.70;;;20.70;62.30;;;;;;5028769;28;20195;-69
2022/05/04 00:23:24;;;;;;;4.13;1.95;;;20.70;62.30;;;;;;5016228;28;20277;-68
2022/05/04 00:25:50;;;;;;;2.20;1.92;;;20.70;62.30;;;;;;5015375;28;20206;-69
2022/05/04 00:28:16;;;;;;;2.13;1.90;;;20.70;62.30;;;;;;5031880;28;20188;-69
2022/05/04 00:30:42;;;;;;;2.45;1.80;;;20.70;62.20;;;;;;5015383;28;20642;-69
2022/05/04 00:33:07;;;;;;;3.15;2.28;;;20.70;62.20;;;;;;4998838;28;20691;-69
2022/05/04 00:35:34;;;;;;;3.28;1.73;;;20.70;62.20;;;;;;5015312;28;20569;-69
2022/05/04 00:38:01;;;;;;;2.47;1.90;;;20.70;62.20;;;;;;5015160;28;20246;-69
2022/05/04 00:40:27;;;;;;;2.38;2.05;;;20.70;62.10;;;;;;5015451;28;20184;-69
2022/05/04 00:42:53;;;;;;;2.35;1.85;;;20.70;62.10;;;;;;5015010;28;20215;-68
2022/05/04 00:45:19;;;;;;;2.65;1.70;;;20.70;62.10;;;;;;5031797;28;20238;-69
2022/05/04 00:47:44;;;;;;;2.47;1.90;;;20.70;62.90;;;;;;5014926;28;20270;-69
2022/05/04 00:50:11;;;;;;;1.85;1.67;;;20.70;62.10;;;;;;5016111;28;20208;-69
2022/05/04 00:52:42;;;;;;;2.60;1.90;;;20.70;62.00;;;;;;5015187;28;20291;-69
2022/05/04 00:55:10;;;;;;;2.65;1.80;;;20.70;62.10;;;;;;5014652;28;20183;-69
2022/05/04 01:00:27;;;;;;;2.20;1.83;;;20.70;62.00;;;;;;5016009;28;20189;-69
2022/05/04 01:02:53;;;;;;;2.40;1.73;;;20.70;62.80;;;;;;5014972;28;20211;-69
2022/05/04 01:05:19;;;;;;;2.95;1.83;;;20.70;62.00;;;;;;5014470;28;20183;-69
2022/05/04 01:07:47;;;;;;;2.90;1.92;;;20.70;62.00;;;;;;5014959;28;20227;-69
2022/05/04 01:10:15;;;;;;;2.03;1.60;;;20.70;61.90;;;;;;5031216;28;20571;-69
2022/05/04 01:12:50;;;;;;;3.00;1.73;;;20.70;61.90;;;;;;5014645;28;20287;-69
2022/05/04 01:15:18;;;;;;;2.97;1.92;;;20.70;61.90;;;;;;5015546;28;20175;-69
2022/05/04 01:17:45;;;;;;;1.67;1.55;;;20.70;61.80;;;;;;5014782;28;20262;-69
2022/05/04 01:20:12;;;;;;;2.17;1.73;;;20.60;61.70;;;;;;5014498;28;20263;-69
2022/05/04 01:22:39;;;;;;;2.90;1.83;;;20.70;61.80;;;;;;5015471;28;20734;-69
2022/05/04 01:25:05;;;;;;;1.77;1.27;;;20.70;61.80;;;;;;5014089;28;20184;-69
2022/05/04 01:27:31;;;;;;;1.63;1.50;;;20.60;61.60;;;;;;5030725;28;20255;-69
2022/05/04 01:29:57;;;;;;;1.65;1.55;;;20.60;61.60;;;;;;5014159;28;20255;-69
2022/05/04 01:32:25;;;;;;;3.20;2.10;;;20.70;61.70;;;;;;5013964;28;20290;-69
2022/05/04 01:34:51;;;;;;;1.80;1.65;;;20.70;61.60;;;;;;5030496;28;20188;-69
2022/05/04 01:37:16;;;;;;;1.88;1.63;;;20.70;61.60;;;;;;5014318;28;20179;-69
2022/05/04 01:39:42;;;;;;;2.45;1.42;;;20.70;61.70;;;;;;5015189;28;20195;-69
2022/05/04 01:42:16;;;;;;;1.73;1.63;;;20.70;61.60;;;;;;5013965;28;20195;-69
2022/05/04 01:44:45;;;;;;;2.75;1.95;;;20.60;61.50;;;;;;5013997;28;20214;-69
2022/05/04 01:47:12;;;;;;;3.10;1.40;;;20.60;61.50;;;;;;4997528;28;20195;-69
2022/05/04 01:49:38;;;;;;;2.20;1.77;;;20.60;61.50;;;;;;5030656;28;20188;-69
2022/05/04 01:52:05;;;;;;;3.00;1.48;;;20.60;61.50;;;;;;5014058;28;20242;-69
2022/05/04 01:54:31;;;;;;;3.13;1.85;;;20.60;61.50;;;;;;5030201;28;20191;-69
2022/05/04 01:56:57;;;;;;;1.55;1.30;;;20.70;61.60;;;;;;5013986;28;20597;-69
2022/05/04 01:59:23;;;;;;;1.60;1.50;;;20.60;61.50;;;;;;4997218;28;20219;-69
2022/05/04 02:01:49;;;;;;;1.60;1.50;;;20.60;61.50;;;;;;4997277;28;20192;-69
2022/05/04 02:04:15;;;;;;;1.70;1.60;;;20.60;61.50;;;;;;4996973;28;20198;-69
2022/05/04 02:06:42;;;;;;;1.90;1.70;;;20.60;61.50;;;;;;5013778;28;20184;-69
2022/05/04 02:09:08;;;;;;;1.83;1.60;;;20.60;61.40;;;;;;5022494;28;20218;-69
2022/05/04 02:11:35;;;;;;;1.58;1.48;;;20.60;61.50;;;;;;5010034;28;20241;-69
2022/05/04 02:14:02;;;;;;;2.08;1.92;;;20.60;61.50;;;;;;4993580;28;20232;-69
2022/05/04 02:16:31;;;;;;;2.58;2.00;;;20.60;61.50;;;;;;5010098;28;20204;-69
2022/05/04 02:18:58;;;;;;;2.28;1.83;;;20.60;61.50;;;;;;5019685;28;20192;-69
2022/05/04 02:21:24;;;;;;;2.22;1.58;;;20.60;61.50;;;;;;5013064;28;20735;-69
2022/05/04 02:23:50;;;;;;;1.90;1.80;;;20.60;61.50;;;;;;5012847;28;20234;-69
2022/05/04 02:26:16;;;;;;;2.00;1.70;;;20.60;61.50;;;;;;5013300;28;20214;-69
2022/05/04 02:28:43;;;;;;;2.97;1.83;;;20.60;61.50;;;;;;5013094;28;20195;-69
2022/05/04 02:31:09;;;;;;;1.90;1.70;;;20.60;61.50;;;;;;5014472;28;20216;-68
2022/05/04 02:33:35;;;;;;;2.42;1.88;;;20.60;61.50;;;;;;5013101;28;20196;-69
2022/05/04 02:38:46;;;;;;;1.42;1.33;;;20.60;61.50;;;;;;5009590;28;20181;-69
2022/05/04 02:41:12;;;;;;;3.42;1.60;;;20.60;61.50;;;;;;4993370;28;20565;-68
2022/05/04 02:43:37;;;;;;;2.10;1.48;;;20.60;61.50;;;;;;5008839;28;20235;-68
2022/05/04 02:46:16;;;;;;;1.70;1.60;;;20.60;61.50;;;;;;4993295;28;20189;-68
2022/05/04 02:48:42;;;;;;;1.63;1.30;;;20.60;61.50;;;;;;5009641;28;20191;-68
2022/05/04 02:51:08;;;;;;;2.38;1.70;;;20.60;61.50;;;;;;5009298;28;20708;-69
2022/05/04 02:53:35;;;;;;;1.77;1.67;;;20.60;61.40;;;;;;5009311;28;20232;-69
2022/05/04 02:56:01;;;;;;;2.25;1.92;;;20.60;61.50;;;;;;4993106;28;20181;-69
2022/05/04 02:58:28;;;;;;;1.65;1.55;;;20.60;61.40;;;;;;4993264;28;20189;-69
2022/05/04 03:00:54;;;;;;;1.98;1.77;;;20.60;61.40;;;;;;4976835;28;20276;-69
2022/05/04 03:03:20;;;;;;;2.38;2.10;;;20.60;61.40;;;;;;4976689;28;20212;-69
2022/05/04 03:05:45;;;;;;;1.95;1.73;;;20.60;61.30;;;;;;4976786;28;20192;-69
2022/05/04 03:08:11;;;;;;;1.80;1.70;;;20.60;61.20;;;;;;4992881;28;20661;-69
2022/05/04 03:13:22;;;;;;;1.60;1.50;;;20.50;61.10;;;;;;4993838;28;20300;-69
2022/05/04 03:15:47;;;;;;;1.50;1.40;;;20.60;61.30;;;;;;5008795;28;20188;-69
2022/05/04 03:18:14;;;;;;;1.48;1.38;;;20.60;61.20;;;;;;5009272;28;20192;-69
2022/05/04 03:20:39;;;;;;;1.40;1.30;;;20.60;61.20;;;;;;4992696;28;20263;-69
2022/05/04 03:23:05;;;;;;;2.17;1.63;;;20.50;61.00;;;;;;4992511;28;20300;-69
2022/05/04 03:25:31;;;;;;;1.48;1.33;;;20.60;61.10;;;;;;5008729;28;20256;-69
2022/05/04 03:27:57;;;;;;;1.52;1.20;;;20.50;61.00;;;;;;5008923;28;20247;-69
2022/05/04 03:30:22;;;;;;;1.63;1.50;;;20.50;61.00;;;;;;4992631;28;20226;-69
2022/05/04 03:32:49;;;;;;;1.60;1.50;;;20.50;61.00;;;;;;5008842;28;20227;-69
2022/05/04 03:35:15;;;;;;;1.50;1.40;;;20.50;61.00;;;;;;4975925;28;20189;-69
2022/05/04 03:37:40;;;;;;;3.40;1.75;;;20.50;61.00;;;;;;4992462;28;20212;-69
2022/05/04 03:40:08;;;;;;;1.77;1.67;;;20.50;60.90;;;;;;5008913;28;20200;-69
2022/05/04 03:42:34;;;;;;;1.80;1.70;;;20.60;61.00;;;;;;4993338;28;20215;-69
2022/05/04 03:44:59;;;;;;;2.10;1.70;;;20.50;60.90;;;;;;5007978;28;20193;-69
2022/05/04 03:47:25;;;;;;;1.50;1.40;;;20.50;60.90;;;;;;4991977;28;20216;-69
2022/05/04 03:49:51;;;;;;;1.50;1.40;;;20.50;60.90;;;;;;5008210;28;20216;-69
2022/05/04 03:52:16;;;;;;;1.70;1.60;;;20.50;60.80;;;;;;5008110;28;20213;-69
2022/05/04 03:54:42;;;;;;;1.58;1.48;;;20.50;60.90;;;;;;4991503;28;20189;-69
2022/05/04 03:57:08;;;;;;;1.63;1.52;;;20.50;60.80;;;;;;4993139;28;20667;-69
2022/05/04 03:59:34;;;;;;;1.90;1.77;;;20.50;60.80;;;;;;5008664;28;20189;-69
2022/05/04 04:01:59;;;;;;;2.72;2.03;;;20.60;60.90;;;;;;5008353;28;20177;-68
2022/05/04 04:04:25;;;;;;;1.60;1.50;;;20.50;60.80;;;;;;5008055;28;20611;-68
2022/05/04 04:06:51;;;;;;;1.50;1.40;;;20.50;60.80;;;;;;4991730;28;20280;-69
2022/05/04 04:09:17;;;;;;;1.90;1.67;;;20.50;60.70;;;;;;4991871;28;20181;-68
2022/05/04 04:11:42;;;;;;;1.70;1.60;;;20.50;60.70;;;;;;5008441;28;20236;-68
2022/05/04 04:14:09;;;;;;;1.98;1.50;;;20.50;60.80;;;;;;4991801;28;20221;-69
2022/05/04 04:16:35;;;;;;;1.73;1.63;;;20.50;60.70;;;;;;5008052;28;20180;-69
2022/05/04 04:19:01;;;;;;;1.38;1.27;;;20.50;60.80;;;;;;4991881;28;20165;-69
2022/05/04 04:24:11;;;;;;;1.65;1.42;;;20.50;60.80;;;;;;5053395;23;20235;-72
2022/05/04 04:26:38;;;;;;;1.75;1.60;;;20.50;60.90;;;;;;5054544;28;20218;-73
2022/05/04 04:29:05;;;;;;;2.50;1.83;;;20.50;60.90;;;;;;5038223;28;20183;-72
2022/05/04 04:31:31;;;;;;;1.80;1.70;;;20.50;61.00;;;;;;5037490;28;20275;-72
2022/05/04 04:33:57;;;;;;;1.90;1.70;;;20.50;61.10;;;;;;5037090;28;20226;-72
2022/05/04 04:36:22;;;;;;;2.65;1.73;;;20.50;61.40;;;;;;5037445;28;20187;-72
2022/05/04 04:38:48;;;;;;;2.08;1.85;;;20.50;61.40;;;;;;5035645;28;20187;-72
2022/05/04 04:41:14;;;;;;;2.05;1.90;;;20.50;61.40;;;;;;5053002;28;20191;-71
2022/05/04 04:43:40;;;;;;;2.05;1.90;;;20.50;61.40;;;;;;5018566;28;20211;-72
2022/05/04 04:46:06;;;;;;;2.25;2.05;;;20.50;61.40;;;;;;5020598;28;20218;-72
2022/05/04 04:48:32;;;;;;;2.42;2.22;;;20.50;61.40;;;;;;5018380;28;20191;-72
2022/05/04 04:50:57;;;;;;;2.67;2.00;;;20.50;62.20;;;;;;5034801;28;20632;-71
2022/05/04 04:53:23;;;;;;;1.70;1.52;;;20.50;61.40;;;;;;5047508;28;20211;-71
2022/05/04 04:55:49;;;;;;;2.10;1.80;;;20.50;61.40;;;;;;5014046;28;20190;-71
2022/05/04 04:58:14;;;;;;;1.73;1.63;;;20.40;61.20;;;;;;5031157;28;20195;-71
2022/05/04 05:00:41;;;;;;;1.48;1.38;;;20.40;61.30;;;;;;5013675;28;20211;-71
2022/05/04 05:03:07;;;;;;;2.10;1.70;;;20.40;61.20;;;;;;5024261;28;20207;-71
2022/05/04 05:05:33;;;;;;;2.22;1.58;;;20.40;62.10;;;;;;5014189;28;20190;-72
2022/05/04 05:07:59;;;;;;;2.17;1.75;;;20.40;61.30;;;;;;5037805;28;20187;-71
2022/05/04 05:10:25;;;;;;;2.08;1.77;;;20.40;61.30;;;;;;5009630;28;20253;-71
2022/05/04 05:12:51;;;;;;;2.13;1.80;;;20.40;61.20;;;;;;5034330;28;20207;-71
2022/05/04 05:18:04;;;;;;;2.40;1.55;;;20.30;61.10;;;;;;5035500;28;20175;-71
2022/05/04 05:20:33;;;;;;;1.98;1.88;;;20.30;61.10;;;;;;5034157;28;20193;-71
2022/05/04 05:23:01;;;;;;;2.38;2.10;;;20.30;60.90;;;;;;5034145;28;20215;-71
2022/05/04 05:25:28;;;;;;;2.50;2.03;;;20.30;60.80;;;;;;5034042;28;20281;-71
2022/05/04 05:27:55;;;;;;;2.20;2.00;;;20.40;60.80;;;;;;5034299;28;20253;-71
2022/05/04 05:30:21;;;;;;;3.50;2.25;;;20.40;60.80;;;;;;5017425;28;20257;-71
2022/05/04 05:32:47;;;;;;;3.13;2.63;;;20.40;60.80;;;;;;5033843;28;20211;-71
2022/05/04 05:35:13;;;;;;;3.13;2.83;;;20.40;60.70;;;;;;5033987;28;20179;-71
2022/05/04 05:37:38;;;;;;;2.50;2.30;;;20.30;60.50;;;;;;5017300;28;20183;-71
2022/05/04 05:40:05;;;;;;;2.33;2.13;;;20.30;60.50;;;;;;5033735;28;20671;-71
2022/05/04 05:42:32;;;;;;;2.47;2.28;;;20.30;60.50;;;;;;5033593;28;20187;-71
2022/05/04 05:44:58;;;;;;;2.63;2.17;;;20.40;60.60;;;;;;5033770;28;20191;-71
2022/05/04 05:47:24;;;;;;;2.38;1.92;;;20.30;60.40;;;;;;5033708;28;20191;-71
2022/05/04 05:49:49;;;;;;;3.08;2.15;;;20.30;60.40;;;;;;5033436;28;20219;-71
2022/05/04 05:52:15;;;;;;;2.35;1.70;;;20.40;60.60;;;;;;5034669;28;20262;-71
2022/05/04 05:54:41;;;;;;;1.95;1.77;;;20.30;60.40;;;;;;5033622;28;20195;-71
2022/05/04 05:57:07;;;;;;;1.80;1.70;;;20.40;60.50;;;;;;5016929;28;20191;-71
2022/05/04 05:59:32;;;;;;;2.03;1.83;;;20.40;60.50;;;;;;5034760;28;20175;-71
2022/05/04 06:01:58;;;;;;;2.05;1.85;;;20.40;60.40;;;;;;5033410;28;20673;-71
2022/05/04 06:04:24;;;;;;;2.42;1.83;;;20.40;60.30;;;;;;5033203;28;20211;-71
2022/05/04 06:06:50;;;;;;;1.85;1.75;;;20.40;60.30;;;;;;5033322;28;20175;-71
2022/05/04 06:09:15;;;;;;;2.00;1.90;;;20.40;60.30;;;;;;5034562;28;20179;-71
2022/05/04 06:11:41;;;;;;;2.28;2.08;;;20.40;60.20;;;;;;5033102;28;20213;-71
2022/05/04 06:14:07;;;;;;;2.10;1.90;;;20.40;60.20;;;;;;5033170;28;20213;-71
2022/05/04 06:16:32;;;;;;;2.15;1.95;;;20.50;60.20;;;;;;5033151;28;20187;-71
2022/05/04 06:18:58;;;;;;;2.17;2.00;;;20.40;60.10;;;;;;5031925;28;20183;-71
2022/05/04 06:21:24;;;;;;;2.85;2.20;;;20.40;60.10;;;;;;5033088;28;20211;-71
2022/05/04 06:23:49;;;;;;;2.42;2.22;;;20.50;60.20;;;;;;5016531;28;20218;-71
2022/05/04 06:26:20;;;;;;;1.95;1.75;;;20.40;60.00;;;;;;5033190;28;20191;-71
2022/05/04 06:28:47;;;;;;;2.58;2.38;;;20.50;60.10;;;;;;5034398;28;20649;-71
2022/05/04 06:34:12;;;;;;;4.43;2.40;;;20.50;60.10;;;;;;5033967;28;20267;-71
2022/05/04 06:36:41;;;;;;;2.25;2.05;;;20.50;60.10;;;;;;5019254;28;20238;-71
2022/05/04 06:39:08;;;;;;;2.25;2.05;;;20.50;60.00;;;;;;5013133;28;20203;-71
2022/05/04 06:41:36;;;;;;;4.07;2.20;;;20.50;60.00;;;;;;5013006;28;20235;-71
2022/05/04 06:44:06;;;;;;;2.45;2.25;;;20.60;60.10;;;;;;5012703;28;20213;-71
2022/05/04 06:46:32;;;;;;;2.28;2.13;;;20.50;59.90;;;;;;4996453;28;20188;-71
2022/05/04 06:48:58;;;;;;;2.10;1.90;;;20.50;59.90;;;;;;5029466;28;20180;-71
2022/05/04 06:51:24;;;;;;;2.00;1.90;;;20.60;59.90;;;;;;5012959;28;20243;-71
2022/05/04 06:53:50;;;;;;;1.95;1.65;;;20.60;59.90;;;;;;4996377;28;20204;-71
2022/05/04 06:56:16;;;;;;;2.30;2.13;;;20.60;59.90;;;;;;4996678;28;20219;-71
2022/05/04 06:58:43;;;;;;;1.95;1.85;;;20.60;59.90;;;;;;5029090;28;20211;-71
2022/05/04 07:01:10;;;;;;;2.05;1.88;;;20.60;59.80;;;;;;4996502;28;20188;-71
2022/05/04 07:03:37;;;;;;;2.30;1.95;;;20.60;59.80;;;;;;4996024;28;20220;-71
2022/05/04 07:06:03;;;;;;;3.67;2.20;;;20.60;59.80;;;;;;5013785;28;20219;-71
2022/05/04 07:08:28;;;;;;;1.75;1.65;;;20.60;59.80;;;;;;4996081;28;20231;-71
2022/05/04 07:10:54;;;;;;;1.95;1.75;;;20.60;59.80;;;;;;5012212;28;20262;-71
2022/05/04 07:13:20;;;;;;;2.40;2.00;;;20.60;59.80;;;;;;5012219;28;20204;-71
2022/05/04 07:15:46;;;;;;;2.10;1.90;;;20.70;59.90;;;;;;5012057;28;20196;-71
2022/05/04 07:18:11;;;;;;;1.90;1.70;;;20.60;59.80;;;;;;5012456;28;20183;-71
2022/05/04 07:20:37;;;;;;;2.45;1.83;;;20.60;59.90;;;;;;4995874;28;20237;-71
2022/05/04 07:23:03;;;;;;;2.28;1.90;;;20.60;59.80;;;;;;4995628;28;20692;-71
2022/05/04 07:25:29;;;;;;;3.20;1.80;;;20.70;59.80;;;;;;5011991;28;20184;-71
2022/05/04 07:27:54;;;;;;;2.17;1.98;;;20.70;59.80;;;;;;4995597;28;20188;-71
2022/05/04 07:30:20;;;;;;;1.80;1.70;;;20.70;59.70;;;;;;5011727;28;20238;-71
2022/05/04 07:32:46;;;;;;;1.83;1.73;;;20.70;59.70;;;;;;4995563;28;20346;-71
2022/05/04 07:35:12;;;;;;;1.90;1.80;;;20.70;59.70;;;;;;4995270;28;20184;-71
2022/05/04 07:37:40;;;;;;;2.13;1.92;;;20.70;59.70;;;;;;4995859;28;20184;-71
2022/05/04 07:42:51;;;;;;;1.80;1.70;;;20.80;59.60;;;;;;5011675;28;20223;-71
2022/05/04 07:45:17;;;;;;;2.00;1.90;;;20.80;59.60;;;;;;5011970;28;20192;-71
2022/05/04 07:47:42;;;;;;;1.90;1.65;;;20.80;59.60;;;;;;5028553;28;20184;-71
2022/05/04 07:50:14;;;;;;;2.40;2.20;;;20.80;59.60;;;;;;5012887;28;20212;-71
2022/05/04 07:52:41;;;;;;;2.88;2.00;;;20.80;59.60;;;;;;5011758;28;20349;-71
2022/05/04 07:55:08;;;;;;;1.90;1.80;;;20.80;59.60;;;;;;5011550;28;20187;-71
2022/05/04 07:57:34;;;;;;;1.80;1.70;;;20.80;59.60;;;;;;5012887;28;20198;-71
2022/05/04 08:05:34;;;;;;;2.15;1.98;;;20.90;59.70;;;;;;5012882;28;20172;-71
2022/05/04 08:08:00;;;;;;;1.50;1.40;;;20.90;59.70;;;;;;5012362;28;20180;-71
2022/05/04 08:10:27;;;;;;;2.60;2.15;;;20.90;59.70;;;;;;4994940;28;20230;-71
2022/05/04 08:12:53;;;;;;;1.85;1.75;;;20.90;59.70;;;;;;5011566;28;20222;-71
2022/05/04 08:15:19;;;;;;;2.53;1.80;;;20.90;59.80;;;;;;5011350;28;20184;-71
2022/05/04 08:17:45;;;;;;;2.10;2.00;;;20.90;59.70;;;;;;4994946;28;20191;-71
2022/05/04 08:20:11;;;;;;;2.03;1.90;;;20.90;59.70;;;;;;5011612;28;20191;-71
2022/05/04 08:22:37;;;;;;;2.05;1.75;;;20.90;59.70;;;;;;5012354;28;20344;-71
2022/05/04 08:25:04;;;;;;;2.00;1.80;;;20.90;59.70;;;;;;4995115;28;20684;-71
2022/05/04 08:27:31;;;;;;;2.10;2.00;;;20.90;59.70;;;;;;5022233;28;20191;-71
2022/05/04 08:29:59;;;;;;;1.98;1.88;;;20.90;59.70;;;;;;5014422;28;20230;-71
2022/05/04 08:32:29;;;;;;;2.00;1.90;;;20.90;59.60;;;;;;5014307;28;20230;-71
2022/05/04 08:34:59;;;;;;;2.63;1.95;;;20.90;59.70;;;;;;5030770;28;20187;-71
2022/05/04 08:37:27;;;;;;;1.83;1.60;;;20.90;59.60;;;;;;5031238;28;20191;-71
2022/05/04 08:39:55;;;;;;;1.80;1.70;;;20.90;59.70;;;;;;5032124;28;20187;-71
2022/05/04 08:42:21;;;;;;;2.13;1.90;;;20.90;59.60;;;;;;5032307;28;20183;-71
2022/05/04 08:44:56;;;;;;;2.40;1.85;;;20.90;59.60;;;;;;5034854;28;20187;-71
2022/05/04 08:47:25;;;;;;;1.88;1.73;;;21.00;59.60;;;;;;5018352;28;20211;-71
2022/05/04 08:49:51;;;;;;;1.75;1.65;;;21.00;59.60;;;;;;5035995;28;20262;-71
2022/05/04 08:52:18;;;;;;;1.60;1.50;;;21.00;59.60;;;;;;5034867;28;20631;-71
2022/05/04 08:54:45;;;;;;;2.55;1.77;;;21.00;59.60;;;;;;5018358;28;20233;-71
2022/05/04 08:57:11;;;;;;;1.55;1.45;;;21.00;59.60;;;;;;5036003;28;20187;-71
2022/05/04 08:59:37;;;;;;;1.92;1.83;;;21.00;59.60;;;;;;5035837;28;20183;-71
2022/05/04 09:02:03;;;;;;;2.05;1.90;;;21.00;59.60;;;;;;5034990;28;20278;-71
2022/05/04 09:04:31;;;;;;;1.60;1.50;;;21.00;59.50;;;;;;5018099;28;20231;-71
2022/05/04 09:07:00;;;;;;;2.92;2.00;;;21.00;59.60;;;;;;5035640;28;20233;-71
2022/05/04 09:09:26;;;;;;;2.42;1.75;;;21.00;59.60;;;;;;5034632;28;20191;-71
2022/05/04 09:11:52;;;;;;;1.80;1.70;;;21.00;59.80;;;;;;5018090;28;20223;-71
2022/05/04 09:14:20;;;;;;;1.70;1.60;;;21.00;59.80;;;;;;5017422;28;20279;-70
2022/05/04 09:16:47;;;;;;;1.60;1.42;;;20.90;59.80;;;;;;5017834;28;20249;-71
2022/05/04 09:19:17;;;;;;;2.25;1.80;;;20.90;59.70;;;;;;5017792;28;20239;-71
2022/05/04 09:21:46;;;;;;;2.10;1.65;;;20.90;59.80;;;;;;5034162;28;20183;-71
2022/05/04 09:24:25;;;;;;;1.90;1.70;;;20.90;59.80;;;;;;5034111;28;20215;-71
2022/05/04 09:26:56;;;;;;;1.80;1.70;;;20.90;59.80;;;;;;5017660;28;20190;-71
2022/05/04 09:29:36;;;;;;;2.00;1.88;;;20.90;59.90;;;;;;5034357;28;20179;-71
2022/05/04 09:32:13;;;;;;;2.55;1.88;;;20.90;59.90;;;;;;5017453;28;20231;-71
2022/05/04 09:34:39;;;;;;;1.65;1.50;;;20.90;60.70;;;;;;5033766;28;20187;-71
2022/05/04 09:45:37;;;;;;;1.80;1.70;;;20.90;59.90;;;;;;5034880;28;20186;-71
2022/05/04 09:48:04;;;;;;;1.58;1.48;;;20.90;59.90;;;;;;5017224;28;20175;-71
2022/05/04 09:50:40;;;;;;;1.67;1.58;;;20.90;59.80;;;;;;5034037;28;20245;-71
2022/05/04 09:53:07;;;;;;;2.40;1.65;;;20.90;59.80;;;;;;5016977;28;20687;-71
2022/05/04 09:55:34;;;;;;;1.70;1.60;;;20.90;59.90;;;;;;5033541;28;20262;-71
2022/05/04 09:58:00;;;;;;;1.40;1.30;;;20.90;59.90;;;;;;5033628;28;20188;-71
2022/05/04 10:00:27;;;;;;;1.55;1.45;;;20.80;59.70;;;;;;5033595;28;20252;-71
2022/05/04 10:02:56;;;;;;;1.60;1.50;;;20.80;59.70;;;;;;5050078;28;20222;-71
2022/05/04 10:05:22;;;;;;;1.85;1.75;;;20.90;59.80;;;;;;5016765;28;20187;-71
2022/05/04 10:07:52;;;;;;;1.48;1.38;;;20.80;59.70;;;;;;5033452;28;20175;-71
2022/05/04 10:10:24;;;;;;;1.80;1.70;;;20.80;59.70;;;;;;5033210;28;20215;-71
2022/05/04 10:12:50;;;;;;;2.15;2.05;;;20.80;59.70;;;;;;5034317;28;20204;-71
2022/05/04 10:15:19;;;;;;;1.45;1.35;;;20.80;59.70;;;;;;5050024;28;20176;-71
2022/05/04 10:18:07;;;;;;;1.88;1.77;;;20.80;59.80;;;;;;5033299;28;20179;-71
2022/05/04 10:20:48;;;;;;;2.15;1.50;;;20.80;59.80;;;;;;5016652;28;20188;-71
2022/05/04 10:23:29;;;;;;;2.20;1.67;;;20.80;59.80;;;;;;5009060;28;20216;-71
2022/05/04 10:25:59;;;;;;;1.63;1.52;;;20.80;59.80;;;;;;5026207;23;20231;-71
2022/05/04 10:28:25;;;;;;;1.52;1.42;;;20.80;59.80;;;;;;5049051;28;20222;-69
2022/05/04 10:30:56;;;;;;;2.10;2.00;;;20.80;59.80;;;;;;5015991;28;20234;-70
2022/05/04 10:33:34;;;;;;;1.50;1.40;;;20.80;59.80;;;;;;5032032;28;20186;-70
2022/05/04 10:36:28;;;;;;;1.77;1.67;;;20.80;59.80;;;;;;5033301;28;20261;-71
2022/05/04 10:39:02;;;;;;;1.90;1.80;;;20.80;59.80;;;;;;5030347;28;20199;-70
2022/05/04 10:41:39;;;;;;;2.40;1.67;;;20.80;59.80;;;;;;5016182;28;20265;-70
2022/05/04 10:44:09;;;;;;;1.63;1.52;;;20.80;59.80;;;;;;5048775;28;20186;-71
2022/05/04 10:46:40;;;;;;;1.90;1.80;;;20.80;59.80;;;;;;5032018;28;20619;-70
2022/05/04 10:49:11;;;;;;;2.10;1.90;;;20.80;59.80;;;;;;5032154;28;20588;-71
2022/05/04 10:51:44;;;;;;;1.75;1.60;;;20.80;59.80;;;;;;5031920;28;20254;-71
2022/05/04 10:54:19;;;;;;;2.45;2.03;;;20.80;59.80;;;;;;5015206;28;20207;-70
2022/05/04 10:56:51;;;;;;;1.92;1.83;;;20.80;59.80;;;;;;5048103;28;20261;-70
2022/05/04 10:59:26;;;;;;;1.52;1.42;;;20.80;59.80;;;;;;5015433;28;20187;-70
2022/05/04 11:02:04;;;;;;;1.75;1.65;;;20.80;59.80;;;;;;5015539;28;20226;-70
2022/05/04 11:04:30;;;;;;;2.03;1.80;;;20.80;59.70;;;;;;5014402;28;20211;-68
2022/05/04 11:07:08;;;;;;;1.70;1.60;;;20.80;59.70;;;;;;5015142;28;20183;-71
2022/05/04 11:09:46;;;;;;;2.22;2.03;;;20.70;59.60;;;;;;5031844;28;20183;-70
2022/05/04 11:12:13;;;;;;;1.58;1.48;;;20.80;59.60;;;;;;5014689;28;20283;-70
2022/05/04 11:14:39;;;;;;;1.70;1.60;;;20.80;59.60;;;;;;5031443;28;20261;-70
2022/05/04 11:17:14;;;;;;;1.80;1.70;;;20.80;59.60;;;;;;5031453;28;20233;-70
2022/05/04 11:19:45;;;;;;;3.33;1.40;;;20.80;59.60;;;;;;5031546;28;20189;-70
2022/05/04 11:22:13;;;;;;;1.60;1.50;;;20.80;59.60;;;;;;5014844;28;20187;-71
2022/05/04 11:24:39;;;;;;;1.55;1.33;;;20.80;59.60;;;;;;5014512;28;20233;-70
2022/05/04 11:27:06;;;;;;;1.85;1.60;;;20.80;59.60;;;;;;5031558;28;20274;-70
2022/05/04 11:29:33;;;;;;;1.92;1.67;;;20.90;59.60;;;;;;5014834;28;20187;-70
2022/05/04 11:32:05;;;;;;;1.75;1.65;;;20.90;59.50;;;;;;5031212;28;20253;-70
2022/05/04 11:34:37;;;;;;;1.70;1.60;;;20.90;59.50;;;;;;5030660;28;20223;-70
2022/05/04 11:37:07;;;;;;;1.50;1.40;;;20.90;59.40;;;;;;5031167;28;20190;-70
2022/05/04 11:39:34;;;;;;;1.58;1.48;;;20.90;59.40;;;;;;5031069;28;20241;-70
2022/05/04 11:42:03;;;;;;;1.55;1.45;;;20.90;59.60;;;;;;5032437;28;20206;-70
2022/05/04 11:44:30;;;;;;;1.60;1.50;;;20.90;59.50;;;;;;5031882;28;20756;-70
2022/05/04 11:46:59;;;;;;;1.92;1.60;;;20.90;59.50;;;;;;5014542;28;20572;-68
2022/05/04 11:49:32;;;;;;;1.80;1.70;;;20.90;59.50;;;;;;5030943;28;20191;-70
2022/05/04 11:52:00;;;;;;;1.58;1.48;;;20.90;59.40;;;;;;5014608;28;20207;-70
2022/05/04 11:54:27;;;;;;;1.88;1.77;;;20.90;59.40;;;;;;5031950;28;20269;-71
2022/05/04 11:56:53;;;;;;;1.35;1.27;;;20.90;59.50;;;;;;5031998;28;20183;-70
2022/05/04 11:59:19;;;;;;;1.60;1.50;;;20.90;59.20;;;;;;5030888;28;20183;-71
2022/05/04 12:01:47;;;;;;;1.70;1.60;;;20.90;59.30;;;;;;5031984;28;20210;-70
2022/05/04 12:04:14;;;;;;;1.52;1.42;;;20.90;59.40;;;;;;5030819;28;20211;-71
2022/05/04 12:06:44;;;;;;;1.63;1.33;;;20.90;59.40;;;;;;5030656;28;20183;-70
2022/05/04 12:09:12;;;;;;;1.50;1.40;;;20.90;59.40;;;;;;5030656;28;20233;-70
2022/05/04 12:11:39;;;;;;;1.50;1.40;;;20.90;59.40;;;;;;5029816;28;20246;-71
2022/05/04 12:14:05;;;;;;;1.70;1.60;;;20.90;59.30;;;;;;5013906;28;20201;-71
2022/05/04 12:16:30;;;;;;;1.50;1.40;;;20.90;59.10;;;;;;5030123;28;20560;-70
2022/05/04 12:18:58;;;;;;;1.88;1.70;;;20.90;59.30;;;;;;5030648;28;20189;-70
2022/05/04 12:21:24;;;;;;;1.85;1.65;;;20.90;59.30;;;;;;5030192;28;20662;-70
2022/05/04 12:23:53;;;;;;;2.35;1.80;;;20.90;59.30;;;;;;5013998;28;20187;-71
2022/05/04 12:26:21;;;;;;;1.60;1.50;;;20.90;59.30;;;;;;5030424;28;20195;-71
2022/05/04 12:34:22;;;;;;;1.65;1.55;;;20.90;59.40;;;;;;5031829;28;20210;-70
2022/05/04 12:36:49;;;;;;;1.92;1.50;;;20.90;59.50;;;;;;5013417;28;20183;-70
2022/05/04 12:39:15;;;;;;;1.60;1.50;;;20.80;59.50;;;;;;5027006;28;20188;-70
2022/05/04 12:41:44;;;;;;;1.58;1.40;;;20.80;59.50;;;;;;5031103;28;20198;-70
2022/05/04 12:44:14;;;;;;;1.55;1.45;;;20.80;59.40;;;;;;5030459;28;20202;-70
2022/05/04 12:46:40;;;;;;;1.70;1.60;;;20.80;59.30;;;;;;5013408;28;20187;-70
2022/05/04 12:49:06;;;;;;;1.52;1.40;;;20.80;59.40;;;;;;5030313;28;20270;-70
2022/05/04 12:51:35;;;;;;;1.70;1.60;;;20.80;59.40;;;;;;5030294;28;20246;-70
2022/05/04 12:54:02;;;;;;;2.10;1.90;;;20.80;59.40;;;;;;5030203;28;20187;-70
2022/05/04 12:56:46;;;;;;;2.05;1.85;;;20.80;59.40;;;;;;5029813;28;20190;-72
2022/05/04 12:59:13;;;;;;;2.13;1.92;;;20.80;59.50;;;;;;5031424;28;20270;-70
2022/05/04 13:01:39;;;;;;;2.55;1.90;;;20.80;59.40;;;;;;5013829;28;20187;-70
2022/05/04 13:04:05;;;;;;;2.42;2.25;;;20.80;59.50;;;;;;5013247;28;20188;-70
2022/05/04 13:06:31;;;;;;;2.47;2.03;;;20.80;59.40;;;;;;5013440;28;20184;-70
2022/05/04 13:08:57;;;;;;;2.33;2.13;;;20.80;59.50;;;;;;5030313;28;20192;-70
2022/05/04 13:11:26;;;;;;;2.10;2.00;;;20.90;59.60;;;;;;5030302;28;20223;-70
2022/05/04 13:13:53;;;;;;;1.90;1.80;;;20.90;59.50;;;;;;5013574;28;20183;-70
2022/05/04 13:16:19;;;;;;;2.45;2.25;;;20.90;59.50;;;;;;5013321;28;20188;-71
2022/05/04 13:18:45;;;;;;;2.63;1.90;;;20.90;59.60;;;;;;5031051;28;20226;-71
2022/05/04 13:21:12;;;;;;;3.47;2.17;;;20.80;59.40;;;;;;5031328;28;20245;-69
2022/05/04 13:23:38;;;;;;;2.72;2.00;;;20.90;59.50;;;;;;5031152;28;20182;-69
2022/05/04 13:26:04;;;;;;;2.08;1.88;;;20.90;59.60;;;;;;5013027;28;20215;-70
2022/05/04 13:28:31;;;;;;;2.35;2.15;;;20.90;59.60;;;;;;5032707;28;20179;-70